sensor_id;sensor_type;location;lat;lon;timestamp;pressure;altitude;pressure_sealevel;temperature;humidity
8280;BME280;8335;42.646;23.380;2023-03-23T00:00:58;143336.75;;;7.04;100.00
8280;BME280;8335;42.646;23.380;2023-03-23T00:03:24;143342.91;;;7.07;100.00
8280;BME280;8335;42.646;23.380;2023-03-23T00:05:54;143336.75;;;7.04;100.00
8280;BME280;8335;42.646;23.380;2023-03-23T00:08:28;143325.56;;;7.00;100.00
8280;BME280;8335;42.646;23.380;2023-03-23T00:10:55;143309.50;;;6.93;100.00
8280;BME280;8335;42.646;23.380;2023-03-23T00:13:23;143285.94;;;6.83;100.00
8280;BME280;8335;42.646;23.380;2023-03-23T00:15:50;143268.56;;;6.76;100.00
8280;BME280;8335;42.646;23.380;2023-03-23T00:18:20;143268.56;;;6.76;100.00
8280;BME280;8335;42.646;23.380;2023-03-23T00:20:51;143242.56;;;6.66;100.00
8280;BME280;8335;42.646;23.380;2023-03-23T00:23:18;143215.28;;;6.54;100.00
8280;BME280;8335;42.646;23.380;2023-03-23T00:25:47;143221.47;;;6.57;100.00
8280;BME280;8335;42.646;23.380;2023-03-23T00:28:15;143209.13;;;6.52;100.00
8280;BME280;8335;42.646;23.380;2023-03-23T00:30:42;143196.72;;;6.47;100.00
8280;BME280;8335;42.646;23.380;2023-03-23T00:33:11;143196.72;;;6.47;100.00
8280;BME280;8335;42.646;23.380;2023-03-23T00:35:41;143189.31;;;6.44;100.00
8280;BME280;8335;42.646;23.380;2023-03-23T00:38:09;143183.06;;;6.41;100.00
8280;BME280;8335;42.646;23.380;2023-03-23T00:40:36;143188.06;;;6.43;100.00
8280;BME280;8335;42.646;23.380;2023-03-23T00:43:03;143191.78;;;6.45;100.00
8280;BME280;8335;42.646;23.380;2023-03-23T00:45:30;143195.47;;;6.46;100.00
8280;BME280;8335;42.646;23.380;2023-03-23T00:48:00;143186.78;;;6.43;100.00
8280;BME280;8335;42.646;23.380;2023-03-23T00:50:27;143193.00;;;6.45;100.00
8280;BME280;8335;42.646;23.380;2023-03-23T00:52:55;143197.94;;;6.47;100.00
8280;BME280;8335;42.646;23.380;2023-03-23T00:55:23;143209.13;;;6.52;100.00
8280;BME280;8335;42.646;23.380;2023-03-23T00:57:51;143220.25;;;6.56;100.00
8280;BME280;8335;42.646;23.380;2023-03-23T01:00:19;143199.19;;;6.48;100.00
8280;BME280;8335;42.646;23.380;2023-03-23T01:02:47;143211.59;;;6.53;100.00
8280;BME280;8335;42.646;23.380;2023-03-23T01:05:14;143225.22;;;6.58;100.00
8280;BME280;8335;42.646;23.380;2023-03-23T01:07:41;143216.53;;;6.55;100.00
8280;BME280;8335;42.646;23.380;2023-03-23T01:10:12;143074.09;;;5.96;100.00
8280;BME280;8335;42.646;23.380;2023-03-23T01:12:42;143217.75;;;6.55;100.00
8280;BME280;8335;42.646;23.380;2023-03-23T01:15:12;143220.25;;;6.56;100.00
8280;BME280;8335;42.646;23.380;2023-03-23T01:17:40;143222.75;;;6.57;100.00
8280;BME280;8335;42.646;23.380;2023-03-23T01:20:07;143227.69;;;6.59;100.00
8280;BME280;8335;42.646;23.380;2023-03-23T01:22:34;143225.22;;;6.58;100.00
8280;BME280;8335;42.646;23.380;2023-03-23T01:25:01;143228.94;;;6.60;100.00
8280;BME280;8335;42.646;23.380;2023-03-23T01:27:29;143222.75;;;6.57;100.00
8280;BME280;8335;42.646;23.380;2023-03-23T01:29:56;143228.94;;;6.60;100.00
8280;BME280;8335;42.646;23.380;2023-03-23T01:32:23;143237.59;;;6.63;100.00
8280;BME280;8335;42.646;23.380;2023-03-23T01:34:50;143235.13;;;6.62;100.00
8280;BME280;8335;42.646;23.380;2023-03-23T01:37:16;143246.28;;;6.67;100.00
8280;BME280;8335;42.646;23.380;2023-03-23T01:39:43;143259.91;;;6.73;100.00
8280;BME280;8335;42.646;23.380;2023-03-23T01:42:10;143259.91;;;6.73;100.00
8280;BME280;8335;42.646;23.380;2023-03-23T01:47:41;143271.03;;;6.77;100.00
8280;BME280;8335;42.646;23.380;2023-03-23T01:50:08;143272.28;;;6.78;100.00
8280;BME280;8335;42.646;23.380;2023-03-23T01:52:35;143276.03;;;6.79;100.00
8280;BME280;8335;42.646;23.380;2023-03-23T01:55:03;143277.28;;;6.80;100.00
8280;BME280;8335;42.646;23.380;2023-03-23T01:57:31;143289.63;;;6.85;100.00
8280;BME280;8335;42.646;23.380;2023-03-23T02:00:02;143292.16;;;6.86;100.00
8280;BME280;8335;42.646;23.380;2023-03-23T02:02:33;143285.94;;;6.83;100.00
8280;BME280;8335;42.646;23.380;2023-03-23T02:05:07;143273.50;;;6.78;100.00
8280;BME280;8335;42.646;23.380;2023-03-23T02:07:35;143272.28;;;6.78;100.00
8280;BME280;8335;42.646;23.380;2023-03-23T02:10:02;143277.28;;;6.80;100.00
8280;BME280;8335;42.646;23.380;2023-03-23T02:12:28;143285.94;;;6.83;100.00
8280;BME280;8335;42.646;23.380;2023-03-23T02:14:56;143289.63;;;6.85;100.00
8280;BME280;8335;42.646;23.380;2023-03-23T02:17:29;143294.63;;;6.87;100.00
8280;BME280;8335;42.646;23.380;2023-03-23T02:20:10;143277.28;;;6.80;100.00
8280;BME280;8335;42.646;23.380;2023-03-23T02:22:54;143278.50;;;6.80;100.00
8280;BME280;8335;42.646;23.380;2023-03-23T02:25:40;143279.75;;;6.81;100.00
8280;BME280;8335;42.646;23.380;2023-03-23T02:31:47;143264.88;;;6.75;100.00
8280;BME280;8335;42.646;23.380;2023-03-23T02:34:25;143269.81;;;6.77;100.00
8280;BME280;8335;42.646;23.380;2023-03-23T02:36:58;143264.88;;;6.75;100.00
8280;BME280;8335;42.646;23.380;2023-03-23T02:39:29;143257.44;;;6.72;100.00
8280;BME280;8335;42.646;23.380;2023-03-23T02:42:00;143243.81;;;6.66;100.00
8280;BME280;8335;42.646;23.380;2023-03-23T02:44:31;143231.41;;;6.61;100.00
8280;BME280;8335;42.646;23.380;2023-03-23T02:47:00;143084.03;;;6.00;100.00
8280;BME280;8335;42.646;23.380;2023-03-23T02:49:32;143108.78;;;6.11;100.00
8280;BME280;8335;42.646;23.380;2023-03-23T02:52:04;143081.50;;;5.99;100.00
8280;BME280;8335;42.646;23.380;2023-03-23T02:54:31;143044.31;;;5.84;100.00
8280;BME280;8335;42.646;23.380;2023-03-23T02:56:58;142998.53;;;5.65;100.00
8280;BME280;8335;42.646;23.380;2023-03-23T02:59:26;142968.81;;;5.53;100.00
8280;BME280;8335;42.646;23.380;2023-03-23T03:02:05;142929.22;;;5.37;100.00
8280;BME280;8335;42.646;23.380;2023-03-23T03:04:35;142900.72;;;5.25;100.00
8280;BME280;8335;42.646;23.380;2023-03-23T03:07:20;142887.09;;;5.19;100.00
8280;BME280;8335;42.646;23.380;2023-03-23T03:09:53;142879.72;;;5.16;100.00
8280;BME280;8335;42.646;23.380;2023-03-23T03:12:30;142876.00;;;5.15;100.00
8280;BME280;8335;42.646;23.380;2023-03-23T03:15:09;142889.59;;;5.20;100.00
8280;BME280;8335;42.646;23.380;2023-03-23T03:17:41;142887.09;;;5.19;100.00
8280;BME280;8335;42.646;23.380;2023-03-23T03:20:13;142904.44;;;5.27;100.00
8280;BME280;8335;42.646;23.380;2023-03-23T03:22:43;142921.75;;;5.34;100.00
8280;BME280;8335;42.646;23.380;2023-03-23T03:25:11;142931.69;;;5.38;100.00
8280;BME280;8335;42.646;23.380;2023-03-23T03:27:42;142930.44;;;5.37;100.00
8280;BME280;8335;42.646;23.380;2023-03-23T03:30:12;142931.69;;;5.38;100.00
8280;BME280;8335;42.646;23.380;2023-03-23T03:32:43;142918.06;;;5.32;100.00
8280;BME280;8335;42.646;23.380;2023-03-23T03:35:15;142880.94;;;5.17;100.00
8280;BME280;8335;42.646;23.380;2023-03-23T03:37:42;142918.06;;;5.32;100.00
8280;BME280;8335;42.646;23.380;2023-03-23T03:40:12;142911.88;;;5.30;100.00
8280;BME280;8335;42.646;23.380;2023-03-23T03:42:40;142921.75;;;5.34;100.00
8280;BME280;8335;42.646;23.380;2023-03-23T03:45:09;142814.13;;;4.89;100.00
8280;BME280;8335;42.646;23.380;2023-03-23T03:47:37;142900.72;;;5.25;100.00
8280;BME280;8335;42.646;23.380;2023-03-23T03:50:04;142900.72;;;5.25;100.00
8280;BME280;8335;42.646;23.380;2023-03-23T03:52:33;142784.41;;;4.77;100.00
8280;BME280;8335;42.646;23.380;2023-03-23T03:55:00;142880.94;;;5.17;100.00
8280;BME280;8335;42.646;23.380;2023-03-23T03:57:27;142876.00;;;5.15;100.00
8280;BME280;8335;42.646;23.380;2023-03-23T03:59:54;142880.94;;;5.17;100.00
8280;BME280;8335;42.646;23.380;2023-03-23T04:02:21;142898.25;;;5.24;100.00
8280;BME280;8335;42.646;23.380;2023-03-23T04:04:49;142901.97;;;5.25;100.00
8280;BME280;8335;42.646;23.380;2023-03-23T04:07:18;142904.44;;;5.27;100.00
8280;BME280;8335;42.646;23.380;2023-03-23T04:09:46;142929.22;;;5.37;100.00
8280;BME280;8335;42.646;23.380;2023-03-23T04:12:13;142940.31;;;5.41;100.00
8280;BME280;8335;42.646;23.380;2023-03-23T04:14:41;142953.94;;;5.47;100.00
8280;BME280;8335;42.646;23.380;2023-03-23T04:17:08;142973.75;;;5.55;100.00
8280;BME280;8335;42.646;23.380;2023-03-23T04:19:35;142979.97;;;5.58;100.00
8280;BME280;8335;42.646;23.380;2023-03-23T04:22:03;142977.47;;;5.57;100.00
8280;BME280;8335;42.646;23.380;2023-03-23T04:24:30;142978.69;;;5.57;100.00
8280;BME280;8335;42.646;23.380;2023-03-23T04:27:00;142987.38;;;5.61;100.00
8280;BME280;8335;42.646;23.380;2023-03-23T04:29:27;142937.84;;;5.40;100.00
8280;BME280;8335;42.646;23.380;2023-03-23T04:31:53;143008.41;;;5.69;100.00
8280;BME280;8335;42.646;23.380;2023-03-23T04:34:28;143019.56;;;5.74;100.00
8280;BME280;8335;42.646;23.380;2023-03-23T04:36:59;143018.34;;;5.73;100.00
8280;BME280;8335;42.646;23.380;2023-03-23T04:39:26;143044.31;;;5.84;100.00
8280;BME280;8335;42.646;23.380;2023-03-23T04:41:54;143061.69;;;5.91;100.00
8280;BME280;8335;42.646;23.380;2023-03-23T04:44:22;143059.19;;;5.90;100.00
8280;BME280;8335;42.646;23.380;2023-03-23T04:46:49;143090.19;;;6.03;100.00
8280;BME280;8335;42.646;23.380;2023-03-23T04:49:19;143074.09;;;5.96;100.00
8280;BME280;8335;42.646;23.380;2023-03-23T04:51:47;143111.25;;;6.12;100.00
8280;BME280;8335;42.646;23.380;2023-03-23T04:54:16;143119.94;;;6.15;100.00
8280;BME280;8335;42.646;23.380;2023-03-23T04:56:43;143138.50;;;6.23;100.00
8280;BME280;8335;42.646;23.380;2023-03-23T04:59:09;143150.88;;;6.28;100.00
8280;BME280;8335;42.646;23.380;2023-03-23T05:01:40;143168.22;;;6.35;100.00
8280;BME280;8335;42.646;23.380;2023-03-23T05:04:11;143186.78;;;6.43;100.00
8280;BME280;8335;42.646;23.380;2023-03-23T05:06:42;143214.06;;;6.54;100.00
8280;BME280;8335;42.646;23.380;2023-03-23T05:09:09;143222.75;;;6.57;100.00
8280;BME280;8335;42.646;23.380;2023-03-23T05:11:36;143224.00;;;6.58;100.00
8280;BME280;8335;42.646;23.380;2023-03-23T05:14:03;143169.44;;;6.35;100.00
8280;BME280;8335;42.646;23.380;2023-03-23T05:16:31;143095.13;;;6.05;100.00
8280;BME280;8335;42.646;23.380;2023-03-23T05:18:59;143138.50;;;6.23;100.00
8280;BME280;8335;42.646;23.380;2023-03-23T05:21:25;143150.88;;;6.28;100.00
8280;BME280;8335;42.646;23.380;2023-03-23T05:23:53;143179.38;;;6.40;100.00
8280;BME280;8335;42.646;23.380;2023-03-23T05:26:21;143178.13;;;6.39;100.00
8280;BME280;8335;42.646;23.380;2023-03-23T05:28:49;143224.00;;;6.58;100.00
8280;BME280;8335;42.646;23.380;2023-03-23T05:31:17;143202.91;;;6.49;100.00
8280;BME280;8335;42.646;23.380;2023-03-23T05:33:44;143209.13;;;6.52;100.00
8280;BME280;8335;42.646;23.380;2023-03-23T05:36:13;143225.22;;;6.58;100.00
8280;BME280;8335;42.646;23.380;2023-03-23T05:38:40;143238.81;;;6.64;100.00
8280;BME280;8335;42.646;23.380;2023-03-23T05:41:10;143262.41;;;6.74;100.00
8280;BME280;8335;42.646;23.380;2023-03-23T05:43:37;143280.97;;;6.81;100.00
8280;BME280;8335;42.646;23.380;2023-03-23T05:46:04;143321.84;;;6.98;100.00
8280;BME280;8335;42.646;23.380;2023-03-23T05:48:31;143356.56;;;7.12;100.00
8280;BME280;8335;42.646;23.380;2023-03-23T05:50:58;143381.38;;;7.23;100.00
8280;BME280;8335;42.646;23.380;2023-03-23T05:53:26;143409.88;;;7.34;100.00
8280;BME280;8335;42.646;23.380;2023-03-23T05:55:58;143443.34;;;7.48;100.00
8280;BME280;8335;42.646;23.380;2023-03-23T05:58:25;143468.19;;;7.58;100.00
8280;BME280;8335;42.646;23.380;2023-03-23T06:00:52;143507.84;;;7.75;100.00
8280;BME280;8335;42.646;23.380;2023-03-23T06:03:19;143555.00;;;7.94;100.00
8280;BME280;8335;42.646;23.380;2023-03-23T06:05:46;143618.22;;;8.20;100.00
8280;BME280;8335;42.646;23.380;2023-03-23T06:08:13;143694.00;;;8.51;100.00
8280;BME280;8335;42.646;23.380;2023-03-23T06:10:41;143788.31;;;8.90;100.00
8280;BME280;8335;42.646;23.380;2023-03-23T06:13:08;143856.59;;;9.18;100.00
8280;BME280;8335;42.646;23.380;2023-03-23T06:15:34;143924.91;;;9.46;100.00
8280;BME280;8335;42.646;23.380;2023-03-23T06:18:02;143972.13;;;9.65;100.00
8280;BME280;8335;42.646;23.380;2023-03-23T06:20:29;144025.53;;;9.87;100.00
8280;BME280;8335;42.646;23.380;2023-03-23T06:22:56;144112.56;;;10.23;100.00
8280;BME280;8335;42.646;23.380;2023-03-23T06:25:23;144218.22;;;10.66;99.61
8280;BME280;8335;42.646;23.380;2023-03-23T06:27:51;144299.00;;;10.99;97.17
8280;BME280;8335;42.646;23.380;2023-03-23T06:30:18;144386.06;;;11.35;94.58
8280;BME280;8335;42.646;23.380;2023-03-23T06:32:46;144509.28;;;11.85;91.54
8280;BME280;8335;42.646;23.380;2023-03-23T06:35:13;144606.38;;;12.25;88.50
8280;BME280;8335;42.646;23.380;2023-03-23T06:37:40;144677.31;;;12.54;86.67
8280;BME280;8335;42.646;23.380;2023-03-23T06:40:08;144813.06;;;13.09;85.37
8280;BME280;8335;42.646;23.380;2023-03-23T06:42:35;145009.97;;;13.90;82.16
8280;BME280;8335;42.646;23.380;2023-03-23T06:45:06;145221.97;;;14.76;78.18
8280;BME280;8335;42.646;23.380;2023-03-23T06:47:34;145537.75;;;16.05;74.20
8280;BME280;8335;42.646;23.380;2023-03-23T06:50:00;145931.31;;;17.66;64.80
8280;BME280;8335;42.646;23.380;2023-03-23T06:52:27;146227.78;;;18.86;57.05
8280;BME280;8335;42.646;23.380;2023-03-23T06:54:54;146518.19;;;20.04;53.08
8280;BME280;8335;42.646;23.380;2023-03-23T06:57:21;146729.91;;;20.91;49.27
8280;BME280;8335;42.646;23.380;2023-03-23T06:59:48;146971.88;;;21.89;46.74
8280;BME280;8335;42.646;23.380;2023-03-23T07:02:16;147187.63;;;22.76;44.77
8280;BME280;8335;42.646;23.380;2023-03-23T07:04:43;147431.19;;;23.75;42.41
8280;BME280;8335;42.646;23.380;2023-03-23T07:07:11;147526.59;;;24.14;40.59
8280;BME280;8335;42.646;23.380;2023-03-23T07:09:40;147571.81;;;24.32;39.54
8280;BME280;8335;42.646;23.380;2023-03-23T07:12:07;147692.44;;;24.81;39.45
8280;BME280;8335;42.646;23.380;2023-03-23T07:14:35;147781.69;;;25.17;37.83
8280;BME280;8335;42.646;23.380;2023-03-23T07:17:02;147868.41;;;25.52;36.91
8280;BME280;8335;42.646;23.380;2023-03-23T07:19:31;147916.25;;;25.72;36.61
8280;BME280;8335;42.646;23.380;2023-03-23T07:21:58;148006.75;;;26.09;36.61
8280;BME280;8335;42.646;23.380;2023-03-23T07:24:25;147970.28;;;25.94;35.03
8280;BME280;8335;42.646;23.380;2023-03-23T07:26:52;147839.50;;;25.41;36.75
8280;BME280;8335;42.646;23.380;2023-03-23T07:29:19;147790.47;;;25.21;36.90
8280;BME280;8335;42.646;23.380;2023-03-23T07:31:45;147738.91;;;25.00;37.27
8280;BME280;8335;42.646;23.380;2023-03-23T07:34:12;147707.53;;;24.87;37.62
8280;BME280;8335;42.646;23.380;2023-03-23T07:36:41;147689.94;;;24.80;37.28
8280;BME280;8335;42.646;23.380;2023-03-23T07:39:08;147743.97;;;25.02;37.38
8280;BME280;8335;42.646;23.380;2023-03-23T07:41:35;147769.13;;;25.12;36.82
8280;BME280;8335;42.646;23.380;2023-03-23T07:44:03;147796.78;;;25.23;36.75
8280;BME280;8335;42.646;23.380;2023-03-23T07:46:30;147760.34;;;25.09;36.23
8280;BME280;8335;42.646;23.380;2023-03-23T07:48:56;147799.28;;;25.24;36.94
8280;BME280;8335;42.646;23.380;2023-03-23T07:51:24;147790.47;;;25.21;37.33
8280;BME280;8335;42.646;23.380;2023-03-23T07:53:52;147852.06;;;25.46;37.02
8280;BME280;8335;42.646;23.380;2023-03-23T07:56:20;147894.78;;;25.63;36.64
8280;BME280;8335;42.646;23.380;2023-03-23T07:58:47;147845.81;;;25.43;36.42
8280;BME280;8335;42.646;23.380;2023-03-23T08:01:13;147926.28;;;25.76;36.02
8280;BME280;8335;42.646;23.380;2023-03-23T08:03:41;147887.28;;;25.60;35.11
8280;BME280;8335;42.646;23.380;2023-03-23T08:06:08;147825.66;;;25.35;36.29
8280;BME280;8335;42.646;23.380;2023-03-23T08:08:36;147816.88;;;25.32;36.04
8280;BME280;8335;42.646;23.380;2023-03-23T08:11:04;147918.75;;;25.73;36.42
8280;BME280;8335;42.646;23.380;2023-03-23T08:13:31;147947.63;;;25.85;35.70
8280;BME280;8335;42.646;23.380;2023-03-23T08:16:00;147996.69;;;26.04;35.77
8280;BME280;8335;42.646;23.380;2023-03-23T08:18:29;148038.16;;;26.21;35.07
8280;BME280;8335;42.646;23.380;2023-03-23T08:20:56;148060.81;;;26.30;34.82
8280;BME280;8335;42.646;23.380;2023-03-23T08:23:23;148091.00;;;26.43;34.69
8280;BME280;8335;42.646;23.380;2023-03-23T08:25:49;148136.31;;;26.61;33.87
8280;BME280;8335;42.646;23.380;2023-03-23T08:28:18;148175.28;;;26.77;34.23
8280;BME280;8335;42.646;23.380;2023-03-23T08:30:44;148201.72;;;26.87;34.27
8280;BME280;8335;42.646;23.380;2023-03-23T08:33:12;148205.50;;;26.89;33.46
8280;BME280;8335;42.646;23.380;2023-03-23T08:35:39;148186.63;;;26.81;33.32
8280;BME280;8335;42.646;23.380;2023-03-23T08:38:08;148135.06;;;26.60;32.40
8280;BME280;8335;42.646;23.380;2023-03-23T08:40:34;148058.31;;;26.29;32.78
8280;BME280;8335;42.646;23.380;2023-03-23T08:43:02;147948.88;;;25.85;32.70
8280;BME280;8335;42.646;23.380;2023-03-23T08:45:31;147991.66;;;26.02;32.78
8280;BME280;8335;42.646;23.380;2023-03-23T08:47:57;148025.63;;;26.16;32.81
8280;BME280;8335;42.646;23.380;2023-03-23T08:50:26;148118.72;;;26.54;32.13
8280;BME280;8335;42.646;23.380;2023-03-23T08:52:56;148224.38;;;26.97;32.13
8280;BME280;8335;42.646;23.380;2023-03-23T08:55:23;148062.06;;;26.31;29.19
8280;BME280;8335;42.646;23.380;2023-03-23T08:57:51;147987.91;;;26.01;28.41
8280;BME280;8335;42.646;23.380;2023-03-23T09:00:20;147938.84;;;25.81;29.10
8280;BME280;8335;42.646;23.380;2023-03-23T09:02:53;147849.56;;;25.45;30.14
8280;BME280;8335;42.646;23.380;2023-03-23T09:05:23;147883.50;;;25.59;30.15
8280;BME280;8335;42.646;23.380;2023-03-23T09:07:52;147847.06;;;25.44;28.89
8280;BME280;8335;42.646;23.380;2023-03-23T09:10:20;147935.09;;;25.79;29.18
8280;BME280;8335;42.646;23.380;2023-03-23T09:12:48;147938.84;;;25.81;28.98
8280;BME280;8335;42.646;23.380;2023-03-23T09:15:16;147907.38;;;25.68;28.93
8280;BME280;8335;42.646;23.380;2023-03-23T09:17:45;147926.28;;;25.76;28.81
8280;BME280;8335;42.646;23.380;2023-03-23T09:20:15;147942.63;;;25.83;29.81
8280;BME280;8335;42.646;23.380;2023-03-23T09:22:44;147622.09;;;24.53;30.47
8280;BME280;8335;42.646;23.380;2023-03-23T09:25:13;147311.88;;;23.27;32.59
8280;BME280;8335;42.646;23.380;2023-03-23T09:27:41;147131.16;;;22.53;33.62
8280;BME280;8335;42.646;23.380;2023-03-23T09:30:11;146945.50;;;21.78;35.18
8280;BME280;8335;42.646;23.380;2023-03-23T09:32:39;146860.31;;;21.43;35.43
8280;BME280;8335;42.646;23.380;2023-03-23T09:35:07;146802.56;;;21.20;35.47
8280;BME280;8335;42.646;23.380;2023-03-23T09:37:38;146847.75;;;21.38;35.57
8280;BME280;8335;42.646;23.380;2023-03-23T09:40:09;146948.06;;;21.79;36.49
8280;BME280;8335;42.646;23.380;2023-03-23T09:42:53;147034.59;;;22.14;34.49
8280;BME280;8335;42.646;23.380;2023-03-23T09:45:25;147216.53;;;22.88;33.47
8280;BME280;8335;42.646;23.380;2023-03-23T09:48:07;147394.78;;;23.60;32.70
8280;BME280;8335;42.646;23.380;2023-03-23T09:50:41;147526.59;;;24.14;30.87
8280;BME280;8335;42.646;23.380;2023-03-23T09:53:14;147554.22;;;24.25;31.32
8280;BME280;8335;42.646;23.380;2023-03-23T09:55:42;147460.06;;;23.87;31.40
8280;BME280;8335;42.646;23.380;2023-03-23T09:58:16;147280.50;;;23.14;32.48
8280;BME280;8335;42.646;23.380;2023-03-23T10:00:48;147237.84;;;22.97;32.62
8280;BME280;8335;42.646;23.380;2023-03-23T10:03:20;146966.84;;;21.87;34.21
8280;BME280;8335;42.646;23.380;2023-03-23T10:05:50;146812.63;;;21.24;34.91
8280;BME280;8335;42.646;23.380;2023-03-23T10:08:21;146820.13;;;21.27;34.49
8280;BME280;8335;42.646;23.380;2023-03-23T10:10:58;147032.06;;;22.13;33.23
8280;BME280;8335;42.646;23.380;2023-03-23T10:13:40;147074.75;;;22.31;33.80
8280;BME280;8335;42.646;23.380;2023-03-23T10:16:11;147230.34;;;22.94;32.14
8280;BME280;8335;42.646;23.380;2023-03-23T10:18:43;147349.53;;;23.42;31.17
8280;BME280;8335;42.646;23.380;2023-03-23T10:21:16;147298.06;;;23.21;32.08
8280;BME280;8335;42.646;23.380;2023-03-23T10:23:52;147426.16;;;23.73;31.83
8280;BME280;8335;42.646;23.380;2023-03-23T10:26:37;147367.09;;;23.49;31.87
8280;BME280;8335;42.646;23.380;2023-03-23T10:29:15;147342.00;;;23.39;31.97
8280;BME280;8335;42.646;23.380;2023-03-23T10:31:47;147212.78;;;22.87;32.30
8280;BME280;8335;42.646;23.380;2023-03-23T10:34:20;147177.59;;;22.72;32.40
8280;BME280;8335;42.646;23.380;2023-03-23T10:36:58;147234.09;;;22.95;32.47
8280;BME280;8335;42.646;23.380;2023-03-23T10:39:31;147141.22;;;22.58;32.26
8280;BME280;8335;42.646;23.380;2023-03-23T10:42:01;147334.50;;;23.36;31.42
8280;BME280;8335;42.646;23.380;2023-03-23T10:44:33;147398.53;;;23.62;31.16
8280;BME280;8335;42.646;23.380;2023-03-23T10:47:01;147476.41;;;23.94;31.09
8280;BME280;8335;42.646;23.380;2023-03-23T10:49:33;147509.00;;;24.07;31.38
8280;BME280;8335;42.646;23.380;2023-03-23T10:52:09;147136.19;;;22.56;32.78
8280;BME280;8335;42.646;23.380;2023-03-23T10:54:50;146768.75;;;21.06;35.05
8280;BME280;8335;42.646;23.380;2023-03-23T10:57:23;146627.19;;;20.49;37.20
8280;BME280;8335;42.646;23.380;2023-03-23T10:59:58;146434.28;;;19.70;37.41
8280;BME280;8335;42.646;23.380;2023-03-23T11:02:24;146332.91;;;19.29;39.04
8280;BME280;8335;42.646;23.380;2023-03-23T11:05:01;146335.41;;;19.30;39.54
8280;BME280;8335;42.646;23.380;2023-03-23T11:07:31;146264.06;;;19.01;39.44
8280;BME280;8335;42.646;23.380;2023-03-23T11:10:11;146200.25;;;18.75;39.54
8280;BME280;8335;42.646;23.380;2023-03-23T11:12:44;146276.53;;;19.06;39.61
8280;BME280;8335;42.646;23.380;2023-03-23T11:15:23;146311.59;;;19.20;39.02
8280;BME280;8335;42.646;23.380;2023-03-23T11:18:02;146317.88;;;19.23;40.00
8280;BME280;8335;42.646;23.380;2023-03-23T11:20:35;146312.84;;;19.21;41.27
8280;BME280;8335;42.646;23.380;2023-03-23T11:23:09;146302.84;;;19.17;41.46
8280;BME280;8335;42.646;23.380;2023-03-23T11:25:54;146262.81;;;19.01;41.93
8280;BME280;8335;42.646;23.380;2023-03-23T11:28:25;146271.56;;;19.04;42.45
8280;BME280;8335;42.646;23.380;2023-03-23T11:30:53;146255.28;;;18.97;42.32
8280;BME280;8335;42.646;23.380;2023-03-23T11:33:20;146269.06;;;19.03;42.94
8280;BME280;8335;42.646;23.380;2023-03-23T11:35:53;146259.03;;;18.99;41.18
8280;BME280;8335;42.646;23.380;2023-03-23T11:38:22;146256.53;;;18.98;41.86
8280;BME280;8335;42.646;23.380;2023-03-23T11:40:54;146217.75;;;18.82;41.73
8280;BME280;8335;42.646;23.380;2023-03-23T11:43:22;146127.66;;;18.46;40.96
8280;BME280;8335;42.646;23.380;2023-03-23T11:45:56;146075.13;;;18.24;41.33
8280;BME280;8335;42.646;23.380;2023-03-23T11:48:27;145986.34;;;17.88;41.75
8280;BME280;8335;42.646;23.380;2023-03-23T11:51:01;145970.09;;;17.81;41.66
8280;BME280;8335;42.646;23.380;2023-03-23T11:53:47;145956.34;;;17.76;42.33
8280;BME280;8335;42.646;23.380;2023-03-23T11:56:23;145895.06;;;17.51;42.03
8280;BME280;8335;42.646;23.380;2023-03-23T11:58:51;145856.28;;;17.35;44.06
8280;BME280;8335;42.646;23.380;2023-03-23T12:01:32;145792.59;;;17.09;44.63
8280;BME280;8335;42.646;23.380;2023-03-23T12:04:32;145732.59;;;16.85;44.92
8280;BME280;8335;42.646;23.380;2023-03-23T12:10:10;145711.38;;;16.76;45.43
8280;BME280;8335;42.646;23.380;2023-03-23T12:12:45;145731.34;;;16.84;46.61
8280;BME280;8335;42.646;23.380;2023-03-23T12:15:25;145695.13;;;16.69;46.03
8280;BME280;8335;42.646;23.380;2023-03-23T12:18:00;145637.66;;;16.46;45.77
8280;BME280;8335;42.646;23.380;2023-03-23T12:20:39;145657.63;;;16.54;48.78
8280;BME280;8335;42.646;23.380;2023-03-23T12:23:18;145678.84;;;16.63;46.94
8280;BME280;8335;42.646;23.380;2023-03-23T12:26:01;145690.09;;;16.67;48.23
8280;BME280;8335;42.646;23.380;2023-03-23T12:28:43;145663.84;;;16.57;46.58
8280;BME280;8335;42.646;23.380;2023-03-23T12:31:16;145655.13;;;16.53;49.23
8280;BME280;8335;42.646;23.380;2023-03-23T12:33:52;145551.47;;;16.11;47.42
8280;BME280;8335;42.646;23.380;2023-03-23T12:36:36;145712.63;;;16.76;48.96
8280;BME280;8335;42.646;23.380;2023-03-23T12:39:15;145725.13;;;16.82;47.38
8280;BME280;8335;42.646;23.380;2023-03-23T12:41:49;145727.63;;;16.83;46.65
8280;BME280;8335;42.646;23.380;2023-03-23T12:44:21;145697.63;;;16.70;47.03
8280;BME280;8335;42.646;23.380;2023-03-23T12:47:07;145638.88;;;16.46;46.91
8280;BME280;8335;42.646;23.380;2023-03-23T12:49:44;145635.16;;;16.45;47.40
8280;BME280;8335;42.646;23.380;2023-03-23T12:52:16;145628.88;;;16.42;46.82
8280;BME280;8335;42.646;23.380;2023-03-23T12:54:50;145651.38;;;16.51;46.63
8280;BME280;8335;42.646;23.380;2023-03-23T12:57:24;145675.09;;;16.61;47.81
8280;BME280;8335;42.646;23.380;2023-03-23T13:00:03;145670.13;;;16.59;47.58
8280;BME280;8335;42.646;23.380;2023-03-23T13:02:40;145631.41;;;16.43;48.59
8280;BME280;8335;42.646;23.380;2023-03-23T13:05:11;145637.66;;;16.46;48.99
8280;BME280;8335;42.646;23.380;2023-03-23T13:07:44;145630.13;;;16.43;48.10
8280;BME280;8335;42.646;23.380;2023-03-23T13:10:18;145657.63;;;16.54;49.19
8280;BME280;8335;42.646;23.380;2023-03-23T13:12:47;145672.63;;;16.60;48.53
8280;BME280;8335;42.646;23.380;2023-03-23T13:15:25;145580.22;;;16.22;49.15
8280;BME280;8335;42.646;23.380;2023-03-23T13:17:58;145575.19;;;16.20;49.45
8280;BME280;8335;42.646;23.380;2023-03-23T13:20:37;145617.66;;;16.38;48.63
8280;BME280;8335;42.646;23.380;2023-03-23T13:23:11;145593.91;;;16.28;49.69
8280;BME280;8335;42.646;23.380;2023-03-23T13:25:47;145597.69;;;16.30;48.63